Time;durP1;ratioP1;P1;durP2;ratioP2;P2;SDS_P1;SDS_P2;PMS_P1;PMS_P2;Temp;Humidity;BMP_temperature;BMP_pressure;BME280_temperature;BME280_humidity;BME280_pressure;Samples;Min_cycle;Max_cycle;Signal;HPM_P1;HPM_P2
2022/05/25 00:00:21;;;;;;;3.40;0.70;;;;;;;;;;4981966;28;20216;-37
2022/05/25 00:02:48;;;;;;;1.00;0.70;;;;;;;;;;4989024;28;20216;-42
2022/05/25 00:05:16;;;;;;;3.60;0.80;;;;;;;;;;4981478;28;20220;-34
2022/05/25 00:07:43;;;;;;;1.20;0.77;;;;;;;;;;4995996;28;20208;-41
2022/05/25 00:10:11;;;;;;;0.70;0.70;;;;;;;;;;4994987;28;20208;-42
2022/05/25 00:12:38;;;;;;;1.00;0.60;;;;;;;;;;4984766;28;20218;-42
2022/05/25 00:15:07;;;;;;;0.77;0.70;;;;;;;;;;4991211;28;20193;-35
2022/05/25 00:17:34;;;;;;;0.90;0.67;;;;;;;;;;4977974;28;20236;-37
2022/05/25 00:20:01;;;;;;;2.63;0.77;;;;;;;;;;4982901;28;20210;-39
2022/05/25 00:22:29;;;;;;;2.20;0.80;;;;;;;;;;4987568;28;20285;-39
2022/05/25 00:24:57;;;;;;;1.27;0.80;;;;;;;;;;4976426;28;20216;-37
2022/05/25 00:27:24;;;;;;;0.70;0.70;;;;;;;;;;4980236;28;20232;-35
2022/05/25 00:29:51;;;;;;;2.13;0.70;;;;;;;;;;4987064;28;20210;-35
2022/05/25 00:32:21;;;;;;;1.23;0.60;;;;;;;;;;4993148;28;20208;-35
2022/05/25 00:34:48;;;;;;;0.70;0.70;;;;;;;;;;4984481;28;20208;-39
2022/05/25 00:37:15;;;;;;;1.10;1.00;;;;;;;;;;4990421;28;20220;-35
2022/05/25 00:39:42;;;;;;;1.07;0.60;;;;;;;;;;4996103;28;20298;-38
2022/05/25 00:42:09;;;;;;;1.13;0.87;;;;;;;;;;4991262;28;20222;-36
2022/05/25 00:44:36;;;;;;;3.20;0.80;;;;;;;;;;4984124;28;20583;-39
2022/05/25 00:47:04;;;;;;;1.73;0.70;;;;;;;;;;4983107;28;20227;-39
2022/05/25 00:49:33;;;;;;;0.77;0.60;;;;;;;;;;4987948;28;20263;-34
2022/05/25 00:52:03;;;;;;;3.40;0.80;;;;;;;;;;4990722;28;20211;-41
2022/05/25 00:54:32;;;;;;;1.40;0.80;;;;;;;;;;4974851;28;20299;-38
2022/05/25 00:57:01;;;;;;;1.17;0.70;;;;;;;;;;4974375;28;20229;-36
2022/05/25 00:59:31;;;;;;;0.60;0.60;;;;;;;;;;4986277;28;20210;-40
2022/05/25 01:01:58;;;;;;;1.50;0.70;;;;;;;;;;4991119;28;20203;-38
2022/05/25 01:04:25;;;;;;;0.73;0.50;;;;;;;;;;4982834;28;20212;-37
2022/05/25 01:07:05;;;;;;;0.60;0.60;;;;;;;;;;4980964;28;20291;-35
2022/05/25 01:09:38;;;;;;;0.70;0.60;;;;;;;;;;4973490;28;20264;-33
2022/05/25 01:12:11;;;;;;;0.57;0.57;;;;;;;;;;4988334;28;20238;-41
2022/05/25 01:14:43;;;;;;;0.77;0.70;;;;;;;;;;4977979;28;20193;-36
2022/05/25 01:17:16;;;;;;;0.83;0.70;;;;;;;;;;4991856;28;20254;-42
2022/05/25 01:19:49;;;;;;;0.60;0.60;;;;;;;;;;4978655;28;20196;-35
2022/05/25 01:22:25;;;;;;;0.67;0.67;;;;;;;;;;4979832;28;20207;-34
2022/05/25 01:24:57;;;;;;;2.37;0.80;;;;;;;;;;4993108;28;20247;-39
2022/05/25 01:27:35;;;;;;;1.27;0.53;;;;;;;;;;4990798;28;20224;-39
2022/05/25 01:30:06;;;;;;;1.23;0.70;;;;;;;;;;4981135;28;20290;-37
2022/05/25 01:32:38;;;;;;;1.43;0.60;;;;;;;;;;4986420;28;20280;-42
2022/05/25 01:35:08;;;;;;;0.70;0.70;;;;;;;;;;4976966;28;20262;-40
2022/05/25 01:37:38;;;;;;;2.10;0.63;;;;;;;;;;4984255;28;20224;-36
2022/05/25 01:40:10;;;;;;;0.80;0.70;;;;;;;;;;4988305;28;20218;-38
2022/05/25 01:42:41;;;;;;;1.57;0.70;;;;;;;;;;4982045;28;20208;-37
2022/05/25 01:45:10;;;;;;;2.73;0.50;;;;;;;;;;4979063;28;20247;-43
2022/05/25 01:47:40;;;;;;;1.43;0.60;;;;;;;;;;4972749;28;20233;-36
2022/05/25 01:50:09;;;;;;;1.10;0.63;;;;;;;;;;4982966;28;20219;-39
2022/05/25 01:52:38;;;;;;;0.60;0.60;;;;;;;;;;4983127;28;20204;-34
2022/05/25 01:55:06;;;;;;;0.70;0.70;;;;;;;;;;4972519;28;20211;-37
2022/05/25 01:57:36;;;;;;;1.23;0.50;;;;;;;;;;4970516;28;20315;-40
2022/05/25 02:00:03;;;;;;;2.53;0.90;;;;;;;;;;4976466;28;20200;-38
2022/05/25 02:05:18;;;;;;;0.60;0.60;;;;;;;;;;4988668;28;20285;-43
2022/05/25 02:07:54;;;;;;;2.40;0.80;;;;;;;;;;4991654;28;20206;-40
2022/05/25 02:10:36;;;;;;;1.13;0.50;;;;;;;;;;4991742;28;20207;-35
2022/05/25 02:13:12;;;;;;;1.43;0.83;;;;;;;;;;4982463;28;20214;-40
2022/05/25 02:15:44;;;;;;;0.50;0.50;;;;;;;;;;4988716;28;20229;-38
2022/05/25 02:18:16;;;;;;;0.90;0.70;;;;;;;;;;4987536;28;20204;-38
2022/05/25 02:20:45;;;;;;;0.73;0.70;;;;;;;;;;4975899;28;20209;-40
2022/05/25 02:23:16;;;;;;;2.00;0.60;;;;;;;;;;4990783;28;20239;-37
2022/05/25 02:25:45;;;;;;;0.63;0.50;;;;;;;;;;4991367;28;20248;-40
2022/05/25 02:28:15;;;;;;;0.90;0.60;;;;;;;;;;4984483;28;20215;-38
2022/05/25 02:30:44;;;;;;;1.90;0.70;;;;;;;;;;4987207;28;20335;-37
2022/05/25 02:33:14;;;;;;;1.00;0.90;;;;;;;;;;4978053;28;20224;-41
2022/05/25 02:35:43;;;;;;;0.70;0.70;;;;;;;;;;4988608;28;20215;-43
2022/05/25 02:38:10;;;;;;;3.50;0.73;;;;;;;;;;4971699;28;20201;-41
2022/05/25 02:40:39;;;;;;;3.43;0.80;;;;;;;;;;4971671;28;20255;-33
2022/05/25 02:43:07;;;;;;;0.50;0.50;;;;;;;;;;4974905;28;20216;-36
2022/05/25 02:45:34;;;;;;;1.43;0.70;;;;;;;;;;4973665;28;20236;-36
2022/05/25 02:48:01;;;;;;;0.63;0.63;;;;;;;;;;4970068;28;20216;-37
2022/05/25 02:50:29;;;;;;;3.03;0.53;;;;;;;;;;4989800;28;20212;-36
2022/05/25 02:52:57;;;;;;;2.07;0.63;;;;;;;;;;4982867;28;20207;-38
2022/05/25 02:55:25;;;;;;;1.57;0.60;;;;;;;;;;4990599;28;20207;-34
2022/05/25 02:57:52;;;;;;;0.50;0.50;;;;;;;;;;4975945;28;20212;-34
2022/05/25 03:00:19;;;;;;;3.97;0.87;;;;;;;;;;4971006;28;20219;-38
2022/05/25 03:02:46;;;;;;;3.00;0.83;;;;;;;;;;4981258;28;20200;-40
2022/05/25 03:07:43;;;;;;;0.83;0.50;;;;;;;;;;4979675;28;20682;-40
2022/05/25 03:10:11;;;;;;;0.87;0.70;;;;;;;;;;4969712;28;20212;-33
2022/05/25 03:12:38;;;;;;;0.50;0.50;;;;;;;;;;4981471;28;20215;-41
2022/05/25 03:15:06;;;;;;;2.53;0.90;;;;;;;;;;4978732;28;20211;-39
2022/05/25 03:17:33;;;;;;;2.50;0.80;;;;;;;;;;4970877;28;20229;-40
2022/05/25 03:20:00;;;;;;;0.63;0.63;;;;;;;;;;4975711;28;20387;-36
2022/05/25 03:22:27;;;;;;;0.97;0.63;;;;;;;;;;4978799;28;20207;-35
2022/05/25 03:24:56;;;;;;;1.27;0.70;;;;;;;;;;4971094;28;20209;-41
2022/05/25 03:27:23;;;;;;;0.53;0.50;;;;;;;;;;4969240;28;20687;-40
2022/05/25 03:29:50;;;;;;;0.60;0.60;;;;;;;;;;4986918;28;20212;-39
2022/05/25 03:32:18;;;;;;;0.60;0.60;;;;;;;;;;4968523;28;20251;-41
2022/05/25 03:34:48;;;;;;;0.47;0.47;;;;;;;;;;4979750;28;20211;-39
2022/05/25 03:37:15;;;;;;;4.53;0.90;;;;;;;;;;4984321;28;20216;-38
2022/05/25 03:39:43;;;;;;;0.53;0.53;;;;;;;;;;4970949;28;20349;-40
2022/05/25 03:42:12;;;;;;;1.47;0.90;;;;;;;;;;4970851;28;20223;-42
2022/05/25 03:44:39;;;;;;;1.80;0.60;;;;;;;;;;4971141;28;20655;-38
2022/05/25 03:47:07;;;;;;;2.33;0.50;;;;;;;;;;4984175;28;20224;-37
2022/05/25 03:49:34;;;;;;;0.57;0.57;;;;;;;;;;4981513;28;20207;-37
2022/05/25 03:52:01;;;;;;;0.67;0.67;;;;;;;;;;4974746;28;20200;-36
2022/05/25 03:54:28;;;;;;;1.60;0.70;;;;;;;;;;4990212;28;20208;-43
2022/05/25 03:56:56;;;;;;;2.20;0.80;;;;;;;;;;4980578;28;20690;-36
2022/05/25 03:59:25;;;;;;;0.73;0.73;;;;;;;;;;4978643;28;20251;-35
2022/05/25 04:01:52;;;;;;;1.30;0.60;;;;;;;;;;4990845;28;20219;-38
2022/05/25 04:04:19;;;;;;;1.70;0.63;;;;;;;;;;4981483;28;20219;-33
2022/05/25 04:06:46;;;;;;;0.90;0.70;;;;;;;;;;4973187;28;20228;-41
2022/05/25 04:09:13;;;;;;;4.37;0.90;;;;;;;;;;4991416;28;20212;-39
2022/05/25 04:11:42;;;;;;;1.83;0.70;;;;;;;;;;4992022;28;20219;-37
2022/05/25 04:14:09;;;;;;;1.63;0.80;;;;;;;;;;4980861;28;20196;-41
2022/05/25 04:16:37;;;;;;;1.47;1.00;;;;;;;;;;4982588;28;20721;-37
2022/05/25 04:19:05;;;;;;;0.77;0.77;;;;;;;;;;4977605;28;20208;-38
2022/05/25 04:21:32;;;;;;;2.53;0.70;;;;;;;;;;4983483;28;20231;-40
2022/05/25 04:23:59;;;;;;;0.60;0.60;;;;;;;;;;4992472;28;20214;-40
2022/05/25 04:26:28;;;;;;;0.70;0.70;;;;;;;;;;4987157;28;20229;-40
2022/05/25 04:28:55;;;;;;;1.10;0.60;;;;;;;;;;4987253;28;20209;-36
2022/05/25 04:31:22;;;;;;;2.00;0.57;;;;;;;;;;4981116;28;20197;-35
2022/05/25 04:33:50;;;;;;;2.60;0.80;;;;;;;;;;4975594;28;20212;-35
2022/05/25 04:36:18;;;;;;;2.70;0.73;;;;;;;;;;4981145;28;20228;-38
2022/05/25 04:38:45;;;;;;;0.70;0.70;;;;;;;;;;4973271;28;20211;-34
2022/05/25 04:41:12;;;;;;;0.67;0.67;;;;;;;;;;4973023;28;20867;-34
2022/05/25 04:43:39;;;;;;;1.70;0.70;;;;;;;;;;4972675;28;20227;-34
2022/05/25 04:46:08;;;;;;;3.80;1.57;;;;;;;;;;4974863;28;20279;-41
2022/05/25 04:48:35;;;;;;;0.97;0.60;;;;;;;;;;4984554;28;20323;-38
2022/05/25 04:51:05;;;;;;;0.83;0.83;;;;;;;;;;4987007;28;20204;-40
2022/05/25 04:53:32;;;;;;;0.90;0.90;;;;;;;;;;4975791;28;20223;-37
2022/05/25 04:58:45;;;;;;;0.63;0.63;;;;;;;;;;4977844;28;20333;-41
2022/05/25 05:01:14;;;;;;;1.70;0.90;;;;;;;;;;4976040;28;20260;-38
2022/05/25 05:03:41;;;;;;;1.63;0.83;;;;;;;;;;4981177;28;20208;-42
2022/05/25 05:06:11;;;;;;;0.60;0.60;;;;;;;;;;4979214;28;20615;-35
2022/05/25 05:08:38;;;;;;;0.77;0.77;;;;;;;;;;4977927;28;20667;-37
2022/05/25 05:11:10;;;;;;;1.93;0.80;;;;;;;;;;4978178;28;20234;-34
2022/05/25 05:13:38;;;;;;;0.87;0.87;;;;;;;;;;4979315;28;20200;-40
2022/05/25 05:16:06;;;;;;;1.30;0.70;;;;;;;;;;4984019;28;20216;-36
2022/05/25 05:18:33;;;;;;;1.33;0.77;;;;;;;;;;4983311;28;20204;-36
2022/05/25 05:21:01;;;;;;;2.10;0.93;;;;;;;;;;4980770;28;20255;-35
2022/05/25 05:23:29;;;;;;;0.93;0.87;;;;;;;;;;4978677;28;20246;-35
2022/05/25 05:25:56;;;;;;;2.00;0.70;;;;;;;;;;4976678;28;20227;-35
2022/05/25 05:28:26;;;;;;;1.00;0.80;;;;;;;;;;4977997;28;20204;-34
2022/05/25 05:30:54;;;;;;;0.70;0.70;;;;;;;;;;4975829;28;20208;-37
2022/05/25 05:33:21;;;;;;;2.20;1.00;;;;;;;;;;4981136;28;20201;-39
2022/05/25 05:35:51;;;;;;;3.97;1.47;;;;;;;;;;4978905;28;20739;-39
2022/05/25 05:38:19;;;;;;;5.23;3.03;;;;;;;;;;4980932;28;20200;-36
2022/05/25 05:40:47;;;;;;;6.17;2.00;;;;;;;;;;4983716;28;20232;-39
2022/05/25 05:43:15;;;;;;;2.37;2.00;;;;;;;;;;4975447;28;20212;-38
2022/05/25 05:45:44;;;;;;;2.03;1.20;;;;;;;;;;4987567;28;20257;-39
2022/05/25 05:48:13;;;;;;;1.83;0.90;;;;;;;;;;4978938;28;20201;-37
2022/05/25 05:50:46;;;;;;;2.10;1.00;;;;;;;;;;4980281;28;20647;-35
2022/05/25 05:53:15;;;;;;;1.70;1.00;;;;;;;;;;4974948;28;20304;-37
2022/05/25 05:55:42;;;;;;;10.37;1.40;;;;;;;;;;4973580;28;20225;-40
2022/05/25 05:58:11;;;;;;;2.30;1.17;;;;;;;;;;4987969;28;20307;-38
2022/05/25 06:00:39;;;;;;;2.20;0.90;;;;;;;;;;4993038;28;20235;-40
2022/05/25 06:03:06;;;;;;;2.27;1.10;;;;;;;;;;4985446;28;20208;-36
2022/05/25 06:05:33;;;;;;;1.80;1.10;;;;;;;;;;4974445;28;20275;-38
2022/05/25 06:08:07;;;;;;;6.33;1.33;;;;;;;;;;4974790;28;20313;-36
2022/05/25 06:10:34;;;;;;;1.00;1.00;;;;;;;;;;4975561;28;20221;-42
2022/05/25 06:13:01;;;;;;;2.07;1.07;;;;;;;;;;4982759;28;20204;-43
2022/05/25 06:21:04;;;;;;;2.97;1.10;;;;;;;;;;4974739;28;20196;-36
2022/05/25 06:23:31;;;;;;;1.13;0.83;;;;;;;;;;4975127;28;20211;-38
2022/05/25 06:25:58;;;;;;;1.67;1.20;;;;;;;;;;4975222;28;20230;-41
2022/05/25 06:28:25;;;;;;;2.47;1.10;;;;;;;;;;4974117;28;20534;-40
2022/05/25 06:30:54;;;;;;;1.57;0.83;;;;;;;;;;4974334;28;20294;-43
2022/05/25 06:33:22;;;;;;;2.67;1.20;;;;;;;;;;4975275;28;20266;-40
2022/05/25 06:35:49;;;;;;;1.17;1.00;;;;;;;;;;4977692;28;20240;-36
2022/05/25 06:38:17;;;;;;;2.90;1.10;;;;;;;;;;4988431;28;20229;-39
2022/05/25 06:40:44;;;;;;;3.77;1.10;;;;;;;;;;4994101;28;20214;-40
2022/05/25 06:43:11;;;;;;;2.77;0.97;;;;;;;;;;4984864;28;20213;-38
2022/05/25 06:45:39;;;;;;;1.40;0.87;;;;;;;;;;4992343;28;20713;-38
2022/05/25 06:48:08;;;;;;;1.20;1.10;;;;;;;;;;4983376;28;20702;-39
2022/05/25 06:50:35;;;;;;;2.95;1.30;;;;;;;;;;4973630;28;20196;-43
2022/05/25 06:53:03;;;;;;;1.60;1.10;;;;;;;;;;4983782;28;20231;-39
2022/05/25 06:55:30;;;;;;;0.80;0.80;;;;;;;;;;4987510;28;20208;-40
2022/05/25 06:57:57;;;;;;;0.95;0.80;;;;;;;;;;4974470;28;20208;-37
2022/05/25 07:00:24;;;;;;;1.20;0.98;;;;;;;;;;4985352;28;20210;-38
2022/05/25 07:02:51;;;;;;;2.58;1.10;;;;;;;;;;4980234;28;20227;-39
2022/05/25 07:05:20;;;;;;;1.90;1.10;;;;;;;;;;4982224;28;20200;-38
2022/05/25 07:07:48;;;;;;;1.65;1.33;;;;;;;;;;4983390;28;20208;-38
2022/05/25 07:10:15;;;;;;;0.90;0.90;;;;;;;;;;4974166;28;20216;-40
2022/05/25 07:12:42;;;;;;;2.17;0.88;;;;;;;;;;4983389;28;20204;-44
2022/05/25 07:15:09;;;;;;;1.85;0.90;;;;;;;;;;4990311;28;20223;-40
2022/05/25 07:17:36;;;;;;;2.53;1.23;;;;;;;;;;4975811;28;20233;-41
2022/05/25 07:20:04;;;;;;;2.90;1.05;;;;;;;;;;4982754;28;20211;-40
2022/05/25 07:22:32;;;;;;;0.90;0.90;;;;;;;;;;4978526;28;20198;-41
2022/05/25 07:25:00;;;;;;;1.33;1.17;;;;;;;;;;4971131;28;20219;-43
2022/05/25 07:27:35;;;;;;;1.40;1.13;;;;;;;;;;4980443;28;20225;-35
2022/05/25 07:30:03;;;;;;;1.05;0.88;;;;;;;;;;4976351;28;20196;-38
2022/05/25 07:32:30;;;;;;;0.90;0.90;;;;;;;;;;4974594;28;20216;-38
2022/05/25 07:35:00;;;;;;;2.60;1.58;;;;;;;;;;4980543;28;20295;-36
2022/05/25 07:37:32;;;;;;;5.20;1.40;;;;;;;;;;4977308;28;20219;-40
2022/05/25 07:40:02;;;;;;;1.25;0.90;;;;;;;;;;4973755;28;20203;-41
2022/05/25 07:42:30;;;;;;;1.52;0.95;;;;;;;;;;4980251;28;20211;-35
2022/05/25 07:44:58;;;;;;;0.80;0.80;;;;;;;;;;4984079;28;20204;-36
2022/05/25 07:47:26;;;;;;;2.63;1.10;;;;;;;;;;4989391;28;20236;-38
2022/05/25 07:49:53;;;;;;;1.05;0.93;;;;;;;;;;4972670;28;20232;-35
2022/05/25 07:52:21;;;;;;;1.23;1.00;;;;;;;;;;4972968;28;20211;-36
2022/05/25 07:54:48;;;;;;;1.00;1.00;;;;;;;;;;4973476;28;20750;-39
2022/05/25 07:57:17;;;;;;;1.58;0.80;;;;;;;;;;4971215;28;20217;-39
2022/05/25 07:59:44;;;;;;;2.88;1.20;;;;;;;;;;4979822;28;20411;-39
2022/05/25 08:07:47;;;;;;;2.20;0.80;;;;;;;;;;4982468;28;20215;-38
2022/05/25 08:10:16;;;;;;;1.83;0.85;;;;;;;;;;4986313;28;20205;-36
2022/05/25 08:12:46;;;;;;;1.80;0.70;;;;;;;;;;4982914;28;20208;-40
2022/05/25 08:15:14;;;;;;;1.23;0.90;;;;;;;;;;4986373;28;20212;-38
2022/05/25 08:17:42;;;;;;;1.83;0.90;;;;;;;;;;4976152;28;20200;-40
2022/05/25 08:20:10;;;;;;;2.90;0.90;;;;;;;;;;4983134;28;20208;-42
2022/05/25 08:22:38;;;;;;;2.95;0.93;;;;;;;;;;4979126;28;20211;-35
2022/05/25 08:25:06;;;;;;;1.67;0.82;;;;;;;;;;4976747;28;20212;-35
2022/05/25 08:27:33;;;;;;;0.85;0.80;;;;;;;;;;4976513;28;20225;-41
2022/05/25 08:30:01;;;;;;;1.77;0.90;;;;;;;;;;4987761;28;20463;-35
2022/05/25 08:32:28;;;;;;;1.02;0.90;;;;;;;;;;4992040;28;20672;-38
2022/05/25 08:34:55;;;;;;;1.73;0.80;;;;;;;;;;4987102;28;20207;-38
2022/05/25 08:37:23;;;;;;;1.83;0.70;;;;;;;;;;4985870;28;20212;-39
2022/05/25 08:39:50;;;;;;;1.83;1.17;;;;;;;;;;4994673;28;20212;-40
2022/05/25 08:42:20;;;;;;;1.75;0.90;;;;;;;;;;4987792;28;20226;-38
2022/05/25 08:44:49;;;;;;;0.90;0.90;;;;;;;;;;4987199;28;20196;-39
2022/05/25 08:47:18;;;;;;;2.10;0.85;;;;;;;;;;4995306;28;20254;-38
2022/05/25 08:49:46;;;;;;;2.70;0.98;;;;;;;;;;4983602;28;20230;-42
2022/05/25 08:52:23;;;;;;;0.60;0.60;;;;;;;;;;4988518;28;20283;-41
2022/05/25 08:54:50;;;;;;;1.95;0.80;;;;;;;;;;4995845;28;20195;-42
2022/05/25 08:57:19;;;;;;;4.32;1.10;;;;;;;;;;4989653;28;20230;-37
2022/05/25 08:59:48;;;;;;;1.23;0.80;;;;;;;;;;4980044;28;20208;-38
2022/05/25 09:02:22;;;;;;;16.73;8.75;;;;;;;;;;4982827;28;20204;-38
2022/05/25 09:04:52;;;;;;;2.10;1.30;;;;;;;;;;4974974;28;20768;-38
2022/05/25 09:07:23;;;;;;;1.35;1.17;;;;;;;;;;5016374;23;20697;-92
2022/05/25 09:09:51;;;;;;;2.47;0.98;;;;;;;;;;4999932;28;20211;-92
2022/05/25 09:12:23;;;;;;;1.73;1.33;;;;;;;;;;4988895;28;20196;-92
2022/05/25 09:14:53;;;;;;;2.42;1.10;;;;;;;;;;4981244;28;20204;-92
2022/05/25 09:17:24;;;;;;;0.95;0.73;;;;;;;;;;4992776;28;20223;-92
2022/05/25 09:19:51;;;;;;;0.80;0.80;;;;;;;;;;5001517;28;20235;-93
2022/05/25 09:22:20;;;;;;;1.27;0.83;;;;;;;;;;4999351;28;20200;-93
2022/05/25 09:24:48;;;;;;;0.90;0.73;;;;;;;;;;4986285;28;20227;-92
2022/05/25 09:27:17;;;;;;;1.30;0.88;;;;;;;;;;4986396;28;20236;-93
2022/05/25 09:29:44;;;;;;;1.70;1.02;;;;;;;;;;4993245;28;20212;-93
2022/05/25 09:32:19;;;;;;;2.10;1.00;;;;;;;;;;4987401;28;20214;-92
2022/05/25 09:34:52;;;;;;;1.90;0.80;;;;;;;;;;5002942;28;20195;-92
2022/05/25 09:37:26;;;;;;;1.87;0.90;;;;;;;;;;4996053;28;20223;-92
2022/05/25 09:39:54;;;;;;;5.03;1.30;;;;;;;;;;4989340;28;20610;-93
2022/05/25 09:42:23;;;;;;;1.97;0.90;;;;;;;;;;4986571;28;20303;-92
2022/05/25 09:44:52;;;;;;;2.00;0.93;;;;;;;;;;4978852;28;20208;-92
2022/05/25 09:47:23;;;;;;;1.60;1.07;;;;;;;;;;4977741;28;20259;-91
2022/05/25 09:49:54;;;;;;;2.40;0.70;;;;;;;;;;4984051;28;20218;-92
2022/05/25 09:52:23;;;;;;;0.88;0.82;;;;;;;;;;4992154;28;20582;-92
2022/05/25 09:54:52;;;;;;;1.87;0.70;;;;;;;;;;4995809;28;20305;-91
2022/05/25 09:57:25;;;;;;;1.70;0.83;;;;;;;;;;4982961;28;20227;-91
2022/05/25 09:59:56;;;;;;;2.00;0.70;;;;;;;;;;4992661;28;20212;-92
2022/05/25 10:02:26;;;;;;;0.80;0.80;;;;;;;;;;4977916;28;20216;-91
2022/05/25 10:04:56;;;;;;;1.63;0.73;;;;;;;;;;4997289;28;20204;-93
2022/05/25 10:07:27;;;;;;;1.02;0.70;;;;;;;;;;4997666;28;20235;-92
2022/05/25 10:09:55;;;;;;;0.90;0.83;;;;;;;;;;4995235;28;20732;-91
2022/05/25 10:12:26;;;;;;;1.20;0.57;;;;;;;;;;4984381;28;20765;-91
2022/05/25 10:14:58;;;;;;;0.77;0.73;;;;;;;;;;4994605;28;20665;-91
2022/05/25 10:17:33;;;;;;;0.90;0.70;;;;;;;;;;4993020;28;20238;-91
2022/05/25 10:20:03;;;;;;;3.40;0.90;;;;;;;;;;4976318;28;20215;-90
2022/05/25 10:22:35;;;;;;;0.87;0.63;;;;;;;;;;4989038;28;20204;-92
2022/05/25 10:25:04;;;;;;;0.70;0.70;;;;;;;;;;4982046;28;20286;-92
2022/05/25 10:27:44;;;;;;;1.30;0.60;;;;;;;;;;4988722;28;20645;-92
2022/05/25 10:38:43;;;;;;;2.47;0.93;;;;;;;;;;4985642;28;20217;-91
2022/05/25 10:44:02;;;;;;;1.13;0.70;;;;;;;;;;4985148;28;20669;-91
2022/05/25 10:46:30;;;;;;;1.03;0.60;;;;;;;;;;4994769;28;20222;-91
2022/05/25 10:49:00;;;;;;;1.67;0.70;;;;;;;;;;4978690;28;20948;-91
2022/05/25 10:51:31;;;;;;;1.20;0.93;;;;;;;;;;4984611;28;20214;-91
2022/05/25 10:56:54;;;;;;;0.70;0.70;;;;;;;;;;4961242;28;20231;-91
2022/05/25 10:59:24;;;;;;;1.13;0.80;;;;;;;;;;4986310;28;20200;-94
2022/05/25 11:02:05;;;;;;;1.70;0.80;;;;;;;;;;4994613;28;20237;-94
2022/05/25 11:04:53;;;;;;;0.73;0.70;;;;;;;;;;4988219;28;20211;-94
2022/05/25 11:07:31;;;;;;;1.97;1.07;;;;;;;;;;4989362;28;20233;-94
2022/05/25 11:10:08;;;;;;;1.27;1.17;;;;;;;;;;4984793;28;20649;-94
2022/05/25 11:12:38;;;;;;;1.43;1.27;;;;;;;;;;4977451;28;20304;-94
2022/05/25 11:15:10;;;;;;;0.70;0.60;;;;;;;;;;4979064;28;20446;-94
2022/05/25 11:17:46;;;;;;;1.40;0.70;;;;;;;;;;4989465;28;20223;-94
2022/05/25 11:20:20;;;;;;;1.70;0.80;;;;;;;;;;4989457;28;20213;-94
2022/05/25 11:22:56;;;;;;;2.60;0.63;;;;;;;;;;4978302;28;20203;-94
2022/05/25 11:25:28;;;;;;;0.83;0.53;;;;;;;;;;4977461;28;20241;-94
2022/05/25 11:28:03;;;;;;;0.80;0.70;;;;;;;;;;4985412;28;20286;-93
2022/05/25 11:30:35;;;;;;;2.03;0.80;;;;;;;;;;4993830;28;20197;-94
2022/05/25 11:33:08;;;;;;;1.80;0.80;;;;;;;;;;4997203;28;20301;-94
2022/05/25 11:35:44;;;;;;;1.43;0.80;;;;;;;;;;4997269;28;20196;-93
2022/05/25 11:38:21;;;;;;;1.37;0.70;;;;;;;;;;4997292;28;20225;-94
2022/05/25 11:40:53;;;;;;;0.57;0.57;;;;;;;;;;4994449;28;20222;-93
2022/05/25 11:43:39;;;;;;;1.33;0.90;;;;;;;;;;4990652;28;20734;-94
2022/05/25 11:46:09;;;;;;;0.67;0.67;;;;;;;;;;4988505;28;20422;-94
2022/05/25 11:49:03;;;;;;;2.40;0.70;;;;;;;;;;4992856;28;20324;-94
2022/05/25 11:51:37;;;;;;;1.23;0.63;;;;;;;;;;5002294;28;20187;-94
2022/05/25 11:54:19;;;;;;;0.60;0.60;;;;;;;;;;4994287;28;20212;-93
2022/05/25 11:56:53;;;;;;;3.23;0.70;;;;;;;;;;5002672;28;20210;-93
2022/05/25 11:59:28;;;;;;;1.80;0.63;;;;;;;;;;5015701;28;20176;-94
2022/05/25 12:01:58;;;;;;;1.80;0.73;;;;;;;;;;4996136;28;20183;-94
2022/05/25 12:04:42;;;;;;;9.03;0.93;;;;;;;;;;5006286;28;20780;-94
2022/05/25 12:07:14;;;;;;;1.80;0.70;;;;;;;;;;5014422;28;20253;-95
2022/05/25 12:09:49;;;;;;;2.60;0.67;;;;;;;;;;5015396;28;20226;-95
2022/05/25 12:12:21;;;;;;;0.40;0.40;;;;;;;;;;5011005;28;20194;-94
2022/05/25 12:15:02;;;;;;;0.60;0.60;;;;;;;;;;4998876;28;20277;-94
2022/05/25 12:17:32;;;;;;;1.80;0.77;;;;;;;;;;4999409;28;20246;-95
2022/05/25 12:20:01;;;;;;;0.43;0.40;;;;;;;;;;5004084;28;20206;-95
2022/05/25 12:22:31;;;;;;;0.73;0.73;;;;;;;;;;5006990;28;20238;-96
2022/05/25 12:25:03;;;;;;;0.57;0.50;;;;;;;;;;5017512;28;20191;-95
2022/05/25 12:27:35;;;;;;;0.60;0.60;;;;;;;;;;5014386;28;20228;-95
2022/05/25 12:30:05;;;;;;;1.03;0.50;;;;;;;;;;5005323;28;20315;-94
2022/05/25 12:32:33;;;;;;;1.47;0.60;;;;;;;;;;4994696;28;20209;-94
2022/05/25 12:35:05;;;;;;;2.53;0.77;;;;;;;;;;5010303;28;20221;-94
2022/05/25 12:37:35;;;;;;;3.30;0.80;;;;;;;;;;4998798;28;20248;-94
2022/05/25 12:40:03;;;;;;;2.30;0.90;;;;;;;;;;4995946;28;20327;-93
2022/05/25 12:42:36;;;;;;;1.67;0.60;;;;;;;;;;4996071;28;20211;-94
2022/05/25 12:50:42;;;;;;;1.07;0.57;;;;;;;;;;5012749;28;20230;-94
2022/05/25 12:53:22;;;;;;;1.10;1.00;;;;;;;;;;5009083;28;20240;-94
2022/05/25 12:55:56;;;;;;;2.10;0.70;;;;;;;;;;5003304;28;20268;-94
2022/05/25 12:58:47;;;;;;;1.17;1.17;;;;;;;;;;5011431;28;20190;-93
2022/05/25 13:01:44;;;;;;;3.70;0.70;;;;;;;;;;5003949;28;20289;-93
2022/05/25 13:04:21;;;;;;;0.63;0.50;;;;;;;;;;5023682;28;20265;-94
2022/05/25 13:07:10;;;;;;;2.13;0.80;;;;;;;;;;5012031;28;20230;-95
2022/05/25 13:09:42;;;;;;;0.73;0.60;;;;;;;;;;4997229;28;20251;-93
2022/05/25 13:12:33;;;;;;;1.00;0.80;;;;;;;;;;4995111;28;20610;-91
2022/05/25 13:15:00;;;;;;;0.60;0.60;;;;;;;;;;4996235;28;20234;-93
2022/05/25 13:17:54;;;;;;;1.53;0.80;;;;;;;;;;4991556;28;20254;-93
2022/05/25 13:20:48;;;;;;;1.60;0.67;;;;;;;;;;4983435;28;20200;-94
2022/05/25 13:23:30;;;;;;;2.87;0.87;;;;;;;;;;4987391;28;20218;-92
2022/05/25 13:26:04;;;;;;;0.80;0.80;;;;;;;;;;4994836;28;20211;-94
2022/05/25 13:28:39;;;;;;;1.13;0.60;;;;;;;;;;4996403;28;20318;-93
2022/05/25 13:31:10;;;;;;;1.17;0.60;;;;;;;;;;4991151;28;20199;-93
2022/05/25 13:33:39;;;;;;;1.47;0.70;;;;;;;;;;4975860;28;20263;-93
2022/05/25 13:36:08;;;;;;;1.80;0.53;;;;;;;;;;4981134;28;20208;-94
2022/05/25 13:38:37;;;;;;;1.23;0.70;;;;;;;;;;4979140;28;20295;-94
2022/05/25 13:41:14;;;;;;;2.20;0.83;;;;;;;;;;4978197;28;20296;-94
2022/05/25 13:43:47;;;;;;;1.87;0.70;;;;;;;;;;4977579;28;20663;-93
2022/05/25 13:46:29;;;;;;;1.77;0.80;;;;;;;;;;5007995;28;20429;-93
2022/05/25 13:48:57;;;;;;;1.10;0.80;;;;;;;;;;5015770;28;20354;-93
2022/05/25 13:54:24;;;;;;;0.77;0.60;;;;;;;;;;4994718;28;20323;-93
2022/05/25 13:56:55;;;;;;;1.23;0.67;;;;;;;;;;4996808;28;20224;-93
2022/05/25 13:59:31;;;;;;;0.93;0.50;;;;;;;;;;4996867;28;20234;-94
2022/05/25 14:02:12;;;;;;;2.47;0.73;;;;;;;;;;4996714;28;20207;-93
2022/05/25 14:04:40;;;;;;;0.83;0.70;;;;;;;;;;4996220;28;20720;-92
2022/05/25 14:07:08;;;;;;;0.60;0.60;;;;;;;;;;4995780;28;20258;-93
2022/05/25 14:12:24;;;;;;;0.93;0.57;;;;;;;;;;4979817;28;20214;-93
2022/05/25 14:14:53;;;;;;;0.87;0.70;;;;;;;;;;4982318;28;20212;-93
2022/05/25 14:17:22;;;;;;;0.50;0.50;;;;;;;;;;4975466;28;20620;-93
2022/05/25 14:19:54;;;;;;;2.30;0.70;;;;;;;;;;4979439;28;20271;-93
2022/05/25 14:22:25;;;;;;;0.70;0.60;;;;;;;;;;4982081;28;20200;-92
2022/05/25 14:24:54;;;;;;;1.27;0.60;;;;;;;;;;4974320;28;20216;-92
2022/05/25 14:27:25;;;;;;;1.03;0.63;;;;;;;;;;4975132;28;20283;-93
2022/05/25 14:29:54;;;;;;;0.50;0.50;;;;;;;;;;4993265;28;20238;-92
2022/05/25 14:32:26;;;;;;;0.67;0.67;;;;;;;;;;4978478;28;20243;-94
2022/05/25 14:34:55;;;;;;;3.67;0.60;;;;;;;;;;4973995;28;20735;-93
2022/05/25 14:37:22;;;;;;;0.47;0.47;;;;;;;;;;4973643;28;20232;-93
2022/05/25 14:39:52;;;;;;;0.80;0.73;;;;;;;;;;4973476;28;20744;-93
2022/05/25 14:42:26;;;;;;;1.37;0.70;;;;;;;;;;4973421;28;20224;-94
2022/05/25 14:44:57;;;;;;;1.20;0.53;;;;;;;;;;4981736;28;20639;-93
2022/05/25 14:47:29;;;;;;;0.60;0.60;;;;;;;;;;4974023;28;20237;-94
2022/05/25 14:50:02;;;;;;;4.22;1.25;;;;;;;;;;4973160;28;20239;-93
2022/05/25 14:52:30;;;;;;;0.60;0.60;;;;;;;;;;4989535;28;20615;-92
2022/05/25 14:55:11;;;;;;;1.60;0.60;;;;;;;;;;4992321;28;20215;-92
2022/05/25 14:57:38;;;;;;;2.07;0.70;;;;;;;;;;4977406;28;20235;-91
2022/05/25 15:00:07;;;;;;;2.40;0.80;;;;;;;;;;4980938;28;20201;-91
2022/05/25 15:02:37;;;;;;;1.03;0.70;;;;;;;;;;4972450;28;20226;-91
2022/05/25 15:05:19;;;;;;;1.33;0.90;;;;;;;;;;4991411;28;20238;-91
2022/05/25 15:07:51;;;;;;;1.03;0.80;;;;;;;;;;4975355;28;20231;-91
2022/05/25 15:10:19;;;;;;;0.97;0.90;;;;;;;;;;4974128;28;20228;-91
2022/05/25 15:12:46;;;;;;;2.10;0.90;;;;;;;;;;4973741;28;20215;-92
2022/05/25 15:18:33;;;;;;;1.07;1.00;;;;;;;;;;4973257;28;20243;-90
2022/05/25 15:21:02;;;;;;;1.03;0.67;;;;;;;;;;4993302;28;20226;-91
2022/05/25 15:23:32;;;;;;;0.97;0.73;;;;;;;;;;4977797;28;20240;-89
2022/05/25 15:26:09;;;;;;;3.33;2.70;;;;;;;;;;4974019;28;20215;-91
2022/05/25 15:28:36;;;;;;;0.63;0.60;;;;;;;;;;4981818;28;20215;-90
2022/05/25 15:31:06;;;;;;;0.67;0.50;;;;;;;;;;4973645;28;20208;-91
2022/05/25 15:33:34;;;;;;;2.07;0.70;;;;;;;;;;4980567;28;20219;-91
2022/05/25 15:36:03;;;;;;;0.97;0.70;;;;;;;;;;4992982;28;20238;-91
2022/05/25 15:38:31;;;;;;;1.43;0.80;;;;;;;;;;4977012;28;20208;-91
2022/05/25 15:40:58;;;;;;;2.33;0.83;;;;;;;;;;4973828;28;20297;-92
2022/05/25 15:43:26;;;;;;;0.60;0.60;;;;;;;;;;4979925;28;20208;-92
2022/05/25 15:45:54;;;;;;;1.60;1.40;;;;;;;;;;4975997;28;20203;-92
2022/05/25 15:48:24;;;;;;;3.00;1.70;;;;;;;;;;4990047;28;20207;-91